createdAt,value
2023-05-10T00:02:30.347Z,12.01
2023-05-10T00:05:33.485Z,11.87
2023-05-10T00:08:35.674Z,11.88
2023-05-10T00:11:39.510Z,11.94
2023-05-10T00:14:41.808Z,11.86
2023-05-10T00:17:44.302Z,11.87
2023-05-10T00:20:48.450Z,11.71
2023-05-10T00:23:52.621Z,11.60
2023-05-10T00:26:54.802Z,11.59
2023-05-10T00:29:57.261Z,11.58
2023-05-10T00:32:59.484Z,11.57
2023-05-10T00:36:02.336Z,11.44
2023-05-10T00:39:04.694Z,11.38
2023-05-10T00:42:07.195Z,11.28
2023-05-10T00:45:09.816Z,11.19
2023-05-10T00:48:12.684Z,11.28
2023-05-10T00:51:15.044Z,11.13
2023-05-10T00:54:17.606Z,11.12
2023-05-10T00:57:20.727Z,11.06
2023-05-10T01:00:23.278Z,10.90
2023-05-10T01:03:26.506Z,11.06
2023-05-10T01:06:29.417Z,11.02
2023-05-10T01:09:32.412Z,10.83
2023-05-10T01:12:41.375Z,10.69
2023-05-10T01:15:43.707Z,10.73
2023-05-10T01:18:46.589Z,10.75
2023-05-10T01:22:19.889Z,10.98
2023-05-10T01:25:52.606Z,11.00
2023-05-10T01:29:08.735Z,11.17
2023-05-10T01:32:21.584Z,11.18
2023-05-10T01:35:30.657Z,11.20
2023-05-10T01:38:37.567Z,11.20
2023-05-10T01:41:50.495Z,11.24
2023-05-10T01:45:14.626Z,11.23
2023-05-10T01:48:19.492Z,11.14
2023-05-10T01:51:25.197Z,11.11
2023-05-10T01:54:29.845Z,11.08
2023-05-10T01:57:38.251Z,11.11
2023-05-10T02:00:45.640Z,11.12
2023-05-10T02:03:50.844Z,11.15
2023-05-10T02:06:55.068Z,11.17
2023-05-10T02:09:58.617Z,11.22
2023-05-10T02:13:02.771Z,11.29
2023-05-10T02:16:06.949Z,11.35
2023-05-10T02:19:11.107Z,11.33
2023-05-10T02:22:14.308Z,11.30
2023-05-10T02:25:19.067Z,11.23
2023-05-10T02:28:22.662Z,11.33
2023-05-10T02:31:26.626Z,11.32
2023-05-10T02:34:29.075Z,11.32
2023-05-10T02:37:33.277Z,11.37
2023-05-10T02:40:37.775Z,11.33
2023-05-10T02:43:41.654Z,11.37
2023-05-10T02:46:44.399Z,11.40
2023-05-10T02:49:47.144Z,11.58
2023-05-10T02:52:57.393Z,11.55
2023-05-10T02:56:05.204Z,11.54
2023-05-10T02:59:07.510Z,11.56
2023-05-10T03:02:11.329Z,11.51
2023-05-10T03:05:13.682Z,11.41
2023-05-10T03:08:16.089Z,11.33
2023-05-10T03:12:20.110Z,11.19
2023-05-10T03:15:58.525Z,11.05
2023-05-10T03:19:20.589Z,11.15
2023-05-10T03:22:43.935Z,11.04
2023-05-10T03:25:48.912Z,11.05
2023-05-10T03:28:53.399Z,10.82
2023-05-10T03:31:56.177Z,10.81
2023-05-10T03:34:58.629Z,10.90
2023-05-10T03:38:01.666Z,10.87
2023-05-10T03:41:04.230Z,10.98
2023-05-10T03:44:06.569Z,10.97
2023-05-10T03:47:09.194Z,11.08
2023-05-10T03:50:11.647Z,10.95
2023-05-10T03:53:14.116Z,11.01
2023-05-10T03:56:16.424Z,10.98
2023-05-10T03:59:18.902Z,11.09
2023-05-10T04:02:21.166Z,11.07
2023-05-10T04:05:23.689Z,11.06
2023-05-10T04:08:27.097Z,11.08
2023-05-10T04:11:29.557Z,11.19
2023-05-10T04:14:31.734Z,11.23
2023-05-10T04:17:34.279Z,11.26
2023-05-10T04:20:36.450Z,11.23
2023-05-10T04:23:39.107Z,11.10
2023-05-10T04:26:41.360Z,11.16
2023-05-10T04:29:43.898Z,11.06
2023-05-10T04:32:46.122Z,11.01
2023-05-10T04:35:48.627Z,10.93
2023-05-10T04:38:50.826Z,11.05
2023-05-10T04:41:53.279Z,11.07
2023-05-10T04:44:55.702Z,11.19
2023-05-10T04:47:58.163Z,11.34
2023-05-10T04:51:00.668Z,11.55
2023-05-10T04:54:06.487Z,11.57
2023-05-10T04:57:09.024Z,11.67
2023-05-10T05:00:12.092Z,11.81
2023-05-10T05:03:14.541Z,11.83
2023-05-10T05:06:17.129Z,12.00
2023-05-10T05:09:25.375Z,12.13
2023-05-10T05:12:27.891Z,12.33
2023-05-10T05:15:31.497Z,12.40
2023-05-10T05:18:33.964Z,12.33
2023-05-10T05:21:37.060Z,12.83
2023-05-10T05:24:39.808Z,13.20
2023-05-10T05:27:42.215Z,13.38
2023-05-10T05:30:45.571Z,13.64
2023-05-10T05:33:47.775Z,14.00
2023-05-10T05:36:50.324Z,13.85
2023-05-10T05:39:52.714Z,14.08
2023-05-10T05:42:55.412Z,15.01
2023-05-10T05:46:01.983Z,14.90
2023-05-10T05:49:05.905Z,15.07
2023-05-10T05:52:08.699Z,16.93
2023-05-10T05:55:11.519Z,19.16
2023-05-10T05:58:13.846Z,19.53
2023-05-10T06:01:16.352Z,20.78
2023-05-10T06:04:19.150Z,21.07
2023-05-10T06:07:22.062Z,21.43
2023-05-10T06:10:26.436Z,23.64
2023-05-10T06:13:33.415Z,24.02
2023-05-10T06:16:51.336Z,24.47
2023-05-10T06:19:57.273Z,21.63
2023-05-10T06:23:00.130Z,23.41
2023-05-10T06:26:02.560Z,22.60
2023-05-10T06:29:05.235Z,22.93
2023-05-10T06:32:09.936Z,22.55
2023-05-10T06:35:12.619Z,23.93
2023-05-10T06:38:17.260Z,24.10
2023-05-10T06:41:22.023Z,20.58
2023-05-10T06:44:25.835Z,19.62
2023-05-10T06:47:29.827Z,18.33
2023-05-10T06:50:32.236Z,16.76
2023-05-10T06:54:39.649Z,15.61
2023-05-10T06:57:46.758Z,15.61
2023-05-10T07:00:58.701Z,15.97
2023-05-10T07:04:02.389Z,20.09
2023-05-10T07:07:07.643Z,21.81
2023-05-10T07:14:36.031Z,23.66
2023-05-10T07:17:39.431Z,21.08
2023-05-10T07:20:42.870Z,18.16
2023-05-10T07:23:45.396Z,18.30
2023-05-10T07:26:47.561Z,17.79
2023-05-10T07:29:50.050Z,17.12
2023-05-10T07:32:52.233Z,18.70
2023-05-10T07:35:54.855Z,17.39
2023-05-10T07:38:58.450Z,16.77
2023-05-10T07:42:00.992Z,17.09
2023-05-10T07:45:03.244Z,17.28
2023-05-10T07:48:05.939Z,16.88
2023-05-10T07:51:10.320Z,16.18
2023-05-10T07:54:13.680Z,16.37
2023-05-10T07:57:18.546Z,17.22
2023-05-10T08:00:21.791Z,17.43
2023-05-10T08:03:24.381Z,17.41
2023-05-10T08:06:29.052Z,18.26
2023-05-10T08:09:31.637Z,17.71
2023-05-10T08:12:33.765Z,17.36
2023-05-10T08:15:36.376Z,16.69
2023-05-10T08:18:39.189Z,16.78
2023-05-10T08:21:43.371Z,16.88
2023-05-10T08:24:48.714Z,17.17
2023-05-10T08:27:51.702Z,17.20
2023-05-10T08:30:54.189Z,16.64
2023-05-10T08:33:56.881Z,16.65
2023-05-10T08:36:59.247Z,16.48
2023-05-10T08:40:01.972Z,16.35
2023-05-10T08:43:09.749Z,16.57
2023-05-10T08:46:14.659Z,16.96
2023-05-10T08:49:21.221Z,16.88
2023-05-10T08:52:26.242Z,17.23
2023-05-10T08:55:29.593Z,17.03
2023-05-10T08:58:33.020Z,17.53
2023-05-10T09:01:37.665Z,18.20
2023-05-10T09:04:40.229Z,18.77
2023-05-10T09:07:43.114Z,18.33
2023-05-10T09:10:48.495Z,19.01
2023-05-10T09:13:52.715Z,19.06
2023-05-10T09:16:56.431Z,18.52
2023-05-10T09:20:04.907Z,18.69
2023-05-10T09:23:08.125Z,19.63
2023-05-10T09:26:10.517Z,20.01
2023-05-10T09:29:14.667Z,19.81
2023-05-10T09:32:17.604Z,20.03
2023-05-10T09:35:22.419Z,22.29
2023-05-10T09:38:24.960Z,22.89
2023-05-10T09:41:29.017Z,21.40
2023-05-10T09:44:32.811Z,20.08
2023-05-10T09:47:36.380Z,18.82
2023-05-10T09:50:38.648Z,19.76
2023-05-10T09:53:41.071Z,19.00
2023-05-10T09:56:44.020Z,19.60
2023-05-10T09:59:46.686Z,19.28
2023-05-10T10:02:56.366Z,21.38
2023-05-10T10:05:58.942Z,22.19
2023-05-10T10:09:01.251Z,19.96
2023-05-10T10:12:05.600Z,19.54
2023-05-10T10:15:10.393Z,19.35
2023-05-10T10:18:16.457Z,18.22
2023-05-10T10:21:19.534Z,17.97
2023-05-10T10:24:22.117Z,18.45
2023-05-10T10:27:52.387Z,19.68
2023-05-10T10:30:56.416Z,23.01
2023-05-10T10:34:30.544Z,22.17
2023-05-10T10:37:46.287Z,23.71
2023-05-10T10:40:48.941Z,22.59
2023-05-10T10:44:24.674Z,22.88
2023-05-10T10:47:32.008Z,21.60
2023-05-10T10:50:44.865Z,21.02
2023-05-10T10:53:51.429Z,22.80
2023-05-10T10:57:16.940Z,25.03
2023-05-10T11:00:20.679Z,22.61
2023-05-10T11:03:24.645Z,22.40
2023-05-10T11:06:34.788Z,21.67
2023-05-10T11:09:40.958Z,23.29
2023-05-10T11:13:03.518Z,24.55
2023-05-10T11:16:15.523Z,23.14
2023-05-10T11:19:21.903Z,24.25
2023-05-10T11:22:26.657Z,22.98
2023-05-10T11:25:29.300Z,21.69
2023-05-10T11:28:31.857Z,21.30
2023-05-10T11:31:48.984Z,22.85
2023-05-10T11:34:51.737Z,24.35
2023-05-10T11:37:57.016Z,22.57
2023-05-10T11:40:59.546Z,21.99
2023-05-10T11:44:03.051Z,21.76
2023-05-10T11:47:06.501Z,23.27
2023-05-10T11:50:09.082Z,24.69
2023-05-10T11:53:11.521Z,24.37
2023-05-10T11:56:15.036Z,23.38
2023-05-10T11:59:17.654Z,22.58
2023-05-10T12:02:20.400Z,21.80
2023-05-10T12:05:25.379Z,20.65
2023-05-10T12:08:29.394Z,20.09
2023-05-10T12:11:31.806Z,20.37
2023-05-10T12:14:36.838Z,20.12
2023-05-10T12:17:43.346Z,20.51
2023-05-10T12:20:45.818Z,20.89
2023-05-10T12:27:33.579Z,19.83
2023-05-10T12:30:37.439Z,19.28
2023-05-10T12:33:45.555Z,19.48
2023-05-10T12:36:51.791Z,19.39
2023-05-10T12:39:53.998Z,19.13
2023-05-10T12:42:56.476Z,19.31
2023-05-10T12:45:59.162Z,19.37
2023-05-10T12:49:08.960Z,19.64
2023-05-10T12:52:17.788Z,20.11
2023-05-10T12:55:20.353Z,20.33
2023-05-10T12:58:34.911Z,20.20
2023-05-10T13:01:38.231Z,20.31
2023-05-10T13:04:40.813Z,20.86
2023-05-10T13:07:44.835Z,20.85
2023-05-10T13:10:47.069Z,21.20
2023-05-10T13:13:49.556Z,21.68
2023-05-10T13:16:51.831Z,21.90
2023-05-10T13:19:54.816Z,22.01
2023-05-10T13:22:57.322Z,21.25
2023-05-10T13:25:59.826Z,20.99
2023-05-10T13:29:02.120Z,21.18
2023-05-10T13:32:05.426Z,21.39
2023-05-10T13:35:09.116Z,22.05
2023-05-10T13:38:11.683Z,22.25
2023-05-10T13:41:13.873Z,21.36
2023-05-10T13:44:16.721Z,20.23
2023-05-10T13:47:19.160Z,19.86
2023-05-10T13:50:23.046Z,19.77
2023-05-10T13:53:27.851Z,20.02
2023-05-10T13:56:30.485Z,20.58
2023-05-10T13:59:33.305Z,21.21
2023-05-10T14:02:36.206Z,21.38
2023-05-10T14:05:38.919Z,21.30
2023-05-10T14:08:41.375Z,21.23
2023-05-10T14:11:44.518Z,20.90
2023-05-10T14:14:46.843Z,20.30
2023-05-10T14:17:49.866Z,20.14
2023-05-10T14:20:52.367Z,19.93
2023-05-10T14:23:55.343Z,20.16
2023-05-10T14:26:57.501Z,20.39
2023-05-10T14:29:59.986Z,19.84
2023-05-10T14:33:03.878Z,19.24
2023-05-10T14:36:07.456Z,19.21
2023-05-10T14:39:11.063Z,19.15
2023-05-10T14:42:13.488Z,19.48
2023-05-10T14:45:18.546Z,19.75
2023-05-10T14:48:22.279Z,19.92
2023-05-10T14:51:24.446Z,20.19
2023-05-10T14:54:27.229Z,20.57
2023-05-10T14:57:33.248Z,20.45
2023-05-10T15:00:35.705Z,19.68
2023-05-10T15:03:38.704Z,19.50
2023-05-10T15:06:42.524Z,19.36
2023-05-10T15:09:45.610Z,19.11
2023-05-10T15:12:48.057Z,18.75
2023-05-10T15:15:50.321Z,18.67
2023-05-10T15:18:52.879Z,18.36
2023-05-10T15:21:55.274Z,18.20
2023-05-10T15:24:58.056Z,18.31
2023-05-10T15:28:00.228Z,18.33
2023-05-10T15:31:02.728Z,18.40
2023-05-10T15:34:05.050Z,18.48
2023-05-10T15:37:07.641Z,18.55
2023-05-10T15:40:10.172Z,19.00
2023-05-10T15:43:12.825Z,19.11
2023-05-10T15:46:15.007Z,19.10
2023-05-10T15:49:18.382Z,19.13
2023-05-10T15:52:21.605Z,18.97
2023-05-10T15:55:24.258Z,18.70
2023-05-10T15:58:26.471Z,18.48
2023-05-10T16:01:29.463Z,18.48
2023-05-10T16:04:32.200Z,18.38
2023-05-10T16:07:34.345Z,18.49
2023-05-10T16:10:38.057Z,18.40
2023-05-10T16:13:40.525Z,18.16
2023-05-10T16:16:43.454Z,18.05
2023-05-10T16:19:46.778Z,18.04
2023-05-10T16:22:49.390Z,17.99
2023-05-10T16:25:51.942Z,18.09
2023-05-10T16:28:54.968Z,18.14
2023-05-10T16:31:57.105Z,18.14
2023-05-10T16:35:00.398Z,18.17
2023-05-10T16:38:03.975Z,18.17
2023-05-10T16:41:06.790Z,18.25
2023-05-10T16:44:09.019Z,18.25
2023-05-10T16:47:11.502Z,18.19
2023-05-10T16:50:14.915Z,18.14
2023-05-10T16:53:18.091Z,17.98
2023-05-10T16:56:22.217Z,17.79
2023-05-10T16:59:24.722Z,17.72
2023-05-10T17:02:27.144Z,17.64
2023-05-10T17:05:29.780Z,17.57
2023-05-10T17:08:32.113Z,17.47
2023-05-10T17:11:34.738Z,17.37
2023-05-10T17:14:38.116Z,17.29
2023-05-10T17:17:40.724Z,17.29
2023-05-10T17:20:45.112Z,17.24
2023-05-10T17:23:47.654Z,17.17
2023-05-10T17:26:49.857Z,17.03
2023-05-10T17:29:57.102Z,16.95
2023-05-10T17:33:00.579Z,16.91
2023-05-10T17:36:03.846Z,16.80
2023-05-10T17:39:06.297Z,16.73
2023-05-10T17:42:08.910Z,16.66
2023-05-10T17:45:12.005Z,16.61
2023-05-10T17:48:14.546Z,16.52
2023-05-10T17:51:16.882Z,16.46
2023-05-10T17:54:19.478Z,16.44
2023-05-10T17:57:23.824Z,16.44
2023-05-10T18:00:26.649Z,16.34
2023-05-10T18:03:29.610Z,16.37
2023-05-10T18:06:36.099Z,16.33
2023-05-10T18:09:38.692Z,16.27
2023-05-10T18:12:40.897Z,16.13
2023-05-10T18:15:43.827Z,16.08
2023-05-10T18:18:46.061Z,16.04
2023-05-10T18:21:49.275Z,15.99
2023-05-10T18:24:51.671Z,15.97
2023-05-10T18:27:54.311Z,15.94
2023-05-10T18:30:56.618Z,15.92
2023-05-10T18:33:59.147Z,15.90
2023-05-10T18:37:03.124Z,15.80
2023-05-10T18:40:09.551Z,15.78
2023-05-10T18:43:11.935Z,15.70
2023-05-10T18:46:15.264Z,15.69
2023-05-10T18:49:18.100Z,15.61
2023-05-10T18:52:20.822Z,15.65
2023-05-10T18:55:25.763Z,15.60
2023-05-10T18:58:29.512Z,15.60
2023-05-10T19:01:31.947Z,15.62
2023-05-10T19:04:34.683Z,15.56
2023-05-10T19:07:37.013Z,15.58
2023-05-10T19:10:39.913Z,15.53
2023-05-10T19:13:42.813Z,15.48
2023-05-10T19:16:45.424Z,15.48
2023-05-10T19:19:49.020Z,15.45
2023-05-10T19:23:08.467Z,15.42
2023-05-10T19:26:14.231Z,15.37
2023-05-10T19:29:17.029Z,15.38
2023-05-10T19:32:19.684Z,15.40
2023-05-10T19:35:22.314Z,15.39
2023-05-10T19:38:28.684Z,15.32
2023-05-10T19:41:31.397Z,15.32
2023-05-10T19:44:33.599Z,15.34
2023-05-10T19:47:36.344Z,15.33
2023-05-10T19:50:39.164Z,15.30
2023-05-10T19:53:44.896Z,15.30
2023-05-10T19:56:47.456Z,15.22
2023-05-10T19:59:50.035Z,15.30
2023-05-10T20:02:54.167Z,15.31
2023-05-10T20:05:57.084Z,15.31
2023-05-10T20:08:59.247Z,15.23
2023-05-10T20:12:02.376Z,15.16
2023-05-10T20:15:06.939Z,15.24
2023-05-10T20:18:09.453Z,15.15
2023-05-10T20:21:11.883Z,15.10
2023-05-10T20:24:14.475Z,15.06
2023-05-10T20:27:17.076Z,14.96
2023-05-10T20:30:19.993Z,15.07
2023-05-10T20:33:22.972Z,15.14
2023-05-10T20:36:26.762Z,15.09
2023-05-10T20:39:29.982Z,14.99
2023-05-10T20:42:32.629Z,15.06
2023-05-10T20:45:37.551Z,15.08
2023-05-10T20:48:40.394Z,15.06
2023-05-10T20:51:42.673Z,14.95
2023-05-10T20:54:45.302Z,14.90
2023-05-10T20:57:47.558Z,14.87
2023-05-10T21:00:50.253Z,14.97
2023-05-10T21:03:52.462Z,14.98
2023-05-10T21:06:56.892Z,14.98
2023-05-10T21:09:59.110Z,15.01
2023-05-10T21:13:02.085Z,14.96
2023-05-10T21:16:04.634Z,14.87
2023-05-10T21:19:07.638Z,14.86
2023-05-10T21:22:12.100Z,14.92
2023-05-10T21:25:14.683Z,14.90
2023-05-10T21:28:16.898Z,14.87
2023-05-10T21:31:19.407Z,14.86
2023-05-10T21:34:21.905Z,14.89
2023-05-10T21:37:24.339Z,14.90
2023-05-10T21:40:26.522Z,14.93
2023-05-10T21:43:29.068Z,14.90
2023-05-10T21:46:31.824Z,14.88
2023-05-10T21:49:34.328Z,14.81
2023-05-10T21:52:37.348Z,14.77
2023-05-10T21:55:39.958Z,14.69
2023-05-10T21:58:42.140Z,14.73
2023-05-10T22:01:45.091Z,14.81
2023-05-10T22:04:47.833Z,14.72
2023-05-10T22:07:50.255Z,14.78
2023-05-10T22:10:52.864Z,14.73
2023-05-10T22:13:55.019Z,14.68
2023-05-10T22:16:58.032Z,14.68
2023-05-10T22:20:00.370Z,14.62
2023-05-10T22:23:03.033Z,14.66
2023-05-10T22:26:05.562Z,14.52
2023-05-10T22:29:08.040Z,14.55
2023-05-10T22:32:10.336Z,14.54
2023-05-10T22:35:12.817Z,14.48
2023-05-10T22:38:15.073Z,14.40
2023-05-10T22:41:17.571Z,14.48
2023-05-10T22:44:19.859Z,14.38
2023-05-10T22:47:22.432Z,14.13
2023-05-10T22:50:25.268Z,14.04
2023-05-10T22:53:27.800Z,14.02
2023-05-10T22:56:30.996Z,13.80
2023-05-10T22:59:34.161Z,13.78
2023-05-10T23:02:36.532Z,13.65
2023-05-10T23:05:39.003Z,13.50
2023-05-10T23:08:41.129Z,13.55
2023-05-10T23:11:43.596Z,13.43
2023-05-10T23:14:47.507Z,13.52
2023-05-10T23:17:50.418Z,13.41
2023-05-10T23:20:53.199Z,13.36
2023-05-10T23:23:55.729Z,13.37
2023-05-10T23:26:57.937Z,13.20
2023-05-10T23:30:00.454Z,13.21
2023-05-10T23:33:03.197Z,13.24
2023-05-10T23:36:05.924Z,13.26
2023-05-10T23:39:08.185Z,13.23
2023-05-10T23:42:10.705Z,13.30
2023-05-10T23:45:12.902Z,13.20
2023-05-10T23:48:15.435Z,13.10
2023-05-10T23:51:17.624Z,12.97
2023-05-10T23:54:20.143Z,12.90
2023-05-10T23:57:22.328Z,12.88
